Pagina principale
METAR-TAF:

METAR-TAF

Aeroporti :

Egilsstadir, Islanda

latitudine: 65-17N, longitudine: 014-24W, altezza: 23 m

Osservazione

Il bollettino è stato emesso 46 minuti fa, alle 03:00 UTC
Vento 15 kt da nord
Temperature -4°C
Umidità 80%
Pressione 1021 hPa
Visibilità 10 km o più
Nuvoloso ad un'altezza di 4600 ft
neve debole,

METAR: BIEG 020300Z 01015KT 9999 -SN BKN046 M04/M07 Q1021

Ora: 03:46 (03:46 UTC)

Previsione

Il bollettino è stato emesso 2 ore e 44 minuti fa, alle 01:02 UTC
Previsione valida dal 02 alle 03 UTC al 03 alle 03 UTC
Vento 15 kt da nord con raffiche fino a 25 kt
Visibilità 10 km o più
Nuvoloso ad un'altezza di 3500 ft
Evoluzione graduale
dal 02 alle 07 UTC al 02 alle 09 UTC
Vento 7 kt da nord/nord-ovest

TAF: BIEG 020102Z 0203/0303 35015G25KT 9999 BKN035 TXM02/0215Z TNM09/0224Z BECMG 0207/0209 33007KT

Osservazioni e previsioni meteorologiche di più di 4000 aeroporti (messaggi METAR e TAF).

Le stazioni disponibili sono rappresentate dai dischi gialli e rossi sulla carta.

Puntare il mouse per vedere il nome della stazione.

Clicca sopra per visualizzare le osservazioni e previsioni meteorologiche.

Per cambiare la mappa : fare clic sui pulsanti verdi con una croce nera per ingrandire, il pulsante verde con un trattino per diminuire, o sulla freccia verde per le mappe adiacenti.


METAR-TAF: